Data for 03/14/2014

Time Sea-Level Adjusted Pressure Absolute Pressure Temperature Relative Humidity Dew Point   
(mb) (inHg) (mb) (inHg) (C) (F) (%) (C) (F)
00:05 1017 30.03 846 24.98 0.8 33.4 55 -7.3 18.9
00:10 1016 30 846 24.98 0.6 33.2 55 -7.3 18.9
00:15 1016 30 846 24.98 0.5 32.9 57 -7.1 19.3
00:20 1016 30 846 24.98 0.3 32.6 57 -7.2 19
00:25 1016 30 846 24.98 0.2 32.3 58 -7.2 19
00:30 1016 30 846 24.98 -0 32 58 -7.3 18.8
00:35 1016 30 846 24.98 0 32 58 -7.3 18.9
00:40 1016 30 846 24.98 0.2 32.4 56 -7.7 18.2
00:45 1016 30 846 24.98 0.4 32.8 55 -7.6 18.4
00:50 1016 30 846 24.98 0.4 32.8 55 -7.6 18.3
00:55 1016 30 846 24.98 0.5 32.9 55 -7.5 18.5
01:00 1016 30 846 24.98 0.5 32.9 54 -7.8 18
01:05 1016 30 846 24.98 0.3 32.6 56 -7.5 18.5
01:10 1016 30 846 24.98 0.1 32.2 56 -7.7 18.1
01:15 1016 30 846 24.98 0 32 55 -7.9 17.8
01:20 1016 30 846 24.98 -0 32 56 -7.8 17.9
01:25 1016 30 846 24.98 -0.1 31.8 55 -8 17.6
01:30 1016 30 845 24.95 -0.1 31.7 56 -7.9 17.7
01:35 1016 30 845 24.95 -0.4 31.3 57 -8 17.6
01:40 1016 30 845 24.95 -0.4 31.3 56 -8.1 17.4
01:45 1016 30 845 24.95 -0.5 31.1 57 -8.1 17.5
01:50 1016 30 845 24.95 -0.7 30.8 58 -8 17.6
01:55 1016 30 845 24.95 -0.9 30.3 58 -8.2 17.3
02:00 1016 30 845 24.95 -0.9 30.3 58 -8.3 17.1
02:05 1016 30 845 24.95 -1 30.3 57 -8.4 16.8
02:10 1016 30 845 24.95 -0.8 30.5 57 -8.4 16.9
02:15 1016 30 845 24.95 -0.8 30.5 56 -8.6 16.5
02:20 1016 30 845 24.95 -0.5 31.1 54 -8.7 16.4
02:25 1016 30 845 24.95 -0.5 31.1 54 -8.7 16.4
02:30 1016 30 845 24.95 -0.5 31.1 54 -8.7 16.3
02:35 1016 30 845 24.95 -0.5 31 54 -8.9 16.1
02:40 1016 30 845 24.95 -0.7 30.7 54 -8.9 16
02:45 1016 30 845 24.95 -0.6 30.9 51 -9.4 15
02:50 1016 30 845 24.95 -0.4 31.3 51 -9.3 15.3
02:55 1016 30 845 24.95 -0.4 31.4 51 -9.3 15.3
03:00 1016 30 845 24.95 -0.4 31.3 52 -9.2 15.4
03:05 1016 30 845 24.95 -0.4 31.2 51 -9.3 15.2
03:10 1016 30 845 24.95 -0.4 31.3 51 -9.4 15.1
03:15 1016 30 845 24.95 -0.4 31.3 52 -9.2 15.5
03:20 1016 30 845 24.95 -0.6 30.8 52 -9.2 15.4
03:25 1016 30 845 24.95 -0.8 30.6 51 -9.6 14.8
03:30 1016 30 845 24.95 -0.7 30.7 52 -9.3 15.3
03:35 1016 30 845 24.95 -0.8 30.6 52 -9.6 14.8
03:40 1016 30 845 24.95 -0.8 30.6 53 -9.1 15.5
03:45 1016 30 845 24.95 -1 30.3 54 -9.2 15.5
03:50 1016 30 845 24.95 -1.3 29.6 56 -9.1 15.6
03:55 1015 29.97 845 24.95 -1.7 29 57 -9.2 15.5
04:00 1015 29.97 845 24.95 -1.8 28.8 57 -9.3 15.3
04:05 1016 30 845 24.95 -1.9 28.6 58 -9 15.8
04:10 1016 30 845 24.95 -2.4 27.6 60 -9.2 15.5
04:15 1015 29.97 845 24.95 -2.5 27.5 59 -9.5 14.9
04:20 1015 29.97 845 24.95 -2.2 28 56 -9.8 14.4
04:25 1015 29.97 845 24.95 -1.9 28.6 55 -9.7 14.5
04:30 1016 30 845 24.95 -1.7 28.9 53 -10.1 13.9
04:35 1016 30 845 24.95 -1.4 29.5 53 -9.8 14.4
04:40 1016 30 845 24.95 -1.8 28.8 55 -9.7 14.6
04:45 1016 30 845 24.95 -1.8 28.8 55 -9.6 14.7
04:50 1016 30 845 24.95 -2.2 28.1 58 -9.5 15
04:55 1016 30 845 24.95 -2.3 27.9 57 -9.6 14.7
05:00 1016 30 845 24.95 -2 28.3 55 -9.9 14.1
05:05 1016 30 845 24.95 -1.7 29 55 -9.6 14.8
05:10 1016 30 845 24.95 -1.5 29.4 54 -9.6 14.8
05:15 1016 30 845 24.95 -1.6 29.2 52 -10.3 13.5
05:20 1016 30 845 24.95 -1 30.1 51 -10 14
05:25 1016 30 845 24.95 -0.9 30.4 52 -9.7 14.6
05:30 1016 30 845 24.95 -0.8 30.6 53 -9.2 15.4
05:35 1016 30 845 24.95 -1.3 29.7 54 -9.5 14.9
05:40 1016 30 845 24.95 -1.8 28.8 55 -9.6 14.8
05:45 1016 30 845 24.95 -2.3 27.9 59 -9.2 15.4
05:50 1016 30 845 24.95 -2.8 26.9 61 -9.4 15.1
05:55 1016 30 845 24.95 -2.8 27 57 -10.1 13.9
06:00 1015 29.97 845 24.95 -2.4 27.7 57 -9.7 14.6
06:05 1015 29.97 845 24.95 -2.3 27.8 56 -9.8 14.3
06:10 1015 29.97 845 24.95 -2.5 27.6 59 -9.4 15
06:15 1015 29.97 845 24.95 -2.9 26.9 61 -9.3 15.3
06:20 1015 29.97 845 24.95 -3.1 26.5 58 -10.2 13.7
06:25 1015 29.97 845 24.95 -2.3 27.9 53 -10.6 13
06:30 1015 29.97 844 24.92 -1.7 28.9 53 -10.1 13.8
06:35 1015 29.97 845 24.95 -1.8 28.8 56 -9.5 14.9
06:40 1015 29.97 845 24.95 -2.3 27.8 57 -9.8 14.4
06:45 1015 29.97 844 24.92 -2.6 27.4 56 -10.1 13.8
06:50 1015 29.97 844 24.92 -2.4 27.7 55 -10.2 13.7
06:55 1015 29.97 845 24.95 -2 28.4 54 -10.1 13.8
07:00 1015 29.97 845 24.95 -1.8 28.7 56 -9.6 14.7
07:05 1015 29.97 845 24.95 -2 28.4 55 -9.9 14.1
07:10 1015 29.97 844 24.92 -2.1 28.3 54 -10.1 13.9
07:15 1015 29.97 844 24.92 -1.6 29 52 -10.3 13.5
07:20 1015 29.97 844 24.92 -1.4 29.4 52 -10.1 13.8
07:25 1015 29.97 844 24.92 -1.3 29.7 50 -10.4 13.2
07:30 1015 29.97 844 24.92 -0.9 30.3 49 -10.3 13.4
07:35 1015 29.97 844 24.92 -0.4 31.2 47 -10.4 13.3
07:40 1015 29.97 844 24.92 -0.1 31.8 49 -9.6 14.8
07:45 1015 29.97 844 24.92 -0.6 30.9 50 -9.9 14.2
07:50 1015 29.97 844 24.92 -0.6 30.9 50 -9.7 14.6
07:55 1015 29.97 844 24.92 -0.8 30.5 52 -9.6 14.8
08:00 1015 29.97 844 24.92 -1 30.2 52 -9.7 14.6
08:05 1015 29.97 844 24.92 -0.8 30.6 52 -9.4 15
08:10 1015 29.97 844 24.92 -0.7 30.8 52 -9.3 15.3
08:15 1015 29.97 844 24.92 -0.8 30.5 52 -9.6 14.7
08:20 1015 29.97 844 24.92 -0.6 30.9 49 -10 13.9
08:25 1015 29.97 844 24.92 -0.3 31.5 49 -9.8 14.4
08:30 1015 29.97 844 24.92 0.3 32.5 48 -9.4 15.1
08:35 1015 29.97 844 24.92 1 33.8 44 -9.9 14.2
08:40 1015 29.97 844 24.92 1.3 34.3 44 -9.7 14.5
08:45 1015 29.97 844 24.92 1.3 34.4 45 -9.4 15.1
08:50 1015 29.97 844 24.92 1.4 34.6 44 -9.7 14.6
08:55 1015 29.97 844 24.92 1.8 35.3 43 -9.3 15.2
09:00 1015 29.97 844 24.92 2.5 36.5 42 -9.2 15.5
09:05 1015 29.97 844 24.92 3.4 38.1 41 -8.7 16.3
09:10 1015 29.97 844 24.92 3.7 38.6 38 -9.3 15.2
09:15 1015 29.97 844 24.92 3.5 38.3 41 -8.6 16.5
09:20 1015 29.97 844 24.92 4 39.2 39 -8.8 16.2
09:25 1015 29.97 844 24.92 4.6 40.3 36 -9.4 15.1
09:30 1015 29.97 844 24.92 4.9 40.9 33 -9.9 14.2
09:35 1015 29.97 844 24.92 5.2 41.4 34 -9.2 15.4
09:40 1015 29.97 844 24.92 6.5 43.7 30 -9.7 14.6
09:45 1015 29.97 844 24.92 7 44.7 29 -9.8 14.3
09:50 1015 29.97 844 24.92 7.4 45.2 29 -9.4 15
09:55 1015 29.97 844 24.92 7 44.5 29 -9.7 14.5
10:00 1015 29.97 844 24.92 7.7 45.9 29 -9.1 15.6
10:05 1015 29.97 844 24.92 8.1 46.6 28 -9.4 15.1
10:10 1015 29.97 844 24.92 8.4 47.2 27 -9.5 15
10:15 1015 29.97 844 24.92 8 46.5 29 -8.8 16.2
10:20 1015 29.97 844 24.92 6.9 44.4 32 -8.6 16.6
10:25 1015 29.97 844 24.92 7.4 45.2 29 -9.5 14.9
10:30 1015 29.97 844 24.92 7.9 46.1 31 -8.4 16.8
10:35 1015 29.97 844 24.92 7.9 46.2 29 -9.3 15.3
10:40 1015 29.97 844 24.92 8.3 47 29 -8.9 16
10:45 1015 29.97 844 24.92 8.7 47.6 29 -8.4 17
10:50 1015 29.97 844 24.92 8.6 47.6 30 -7.9 17.8
10:55 1015 29.97 844 24.92 8.9 48.1 29 -8 17.7
11:00 1015 29.97 844 24.92 8.6 47.5 30 -7.9 17.7
11:05 1015 29.97 844 24.92 8.8 47.9 30 -7.9 17.8
11:10 1015 29.97 844 24.92 8.9 48 29 -8 17.7
11:15 1015 29.97 844 24.92 8.8 47.8 30 -7.9 17.8
11:20 1015 29.97 844 24.92 9.1 48.3 31 -7.2 19.1
11:25 1015 29.97 844 24.92 9.7 49.4 29 -7.4 18.8
11:30 1015 29.97 844 24.92 9.9 49.7 29 -7.1 19.2
11:35 1015 29.97 844 24.92 9.5 49.1 31 -6.7 20
11:40 1015 29.97 844 24.92 9.6 49.2 30 -7 19.3
11:45 1015 29.97 844 24.92 9.2 48.5 32 -6.7 19.9
11:50 1015 29.97 844 24.92 9.1 48.4 30 -7.5 18.5
11:55 1014 29.94 844 24.92 9.4 49 29 -7.7 18.2
12:00 1014 29.94 844 24.92 9.9 49.7 30 -6.9 19.5
12:05 1014 29.94 844 24.92 9.7 49.5 29 -7.3 18.9
12:10 1014 29.94 843 24.89 9.8 49.6 30 -7.1 19.2
12:15 1014 29.94 843 24.89 9.8 49.7 29 -7.2 19
12:20 1014 29.94 843 24.89 10.1 50.1 29 -7 19.5
12:25 1014 29.94 843 24.89 10.2 50.3 31 -6.3 20.6
12:30 1014 29.94 843 24.89 9.9 49.8 32 -6.2 20.9
12:35 1014 29.94 843 24.89 9.7 49.5 33 -5.9 21.4
12:40 1014 29.94 843 24.89 9.6 49.4 31 -6.8 19.8
12:45 1014 29.94 843 24.89 9.5 49.1 31 -6.8 19.8
12:50 1014 29.94 843 24.89 8.9 48 33 -6.6 20.2
12:55 1014 29.94 843 24.89 9 48.2 32 -6.8 19.8
13:00 1014 29.94 843 24.89 9.2 48.6 33 -6.4 20.5
13:05 1014 29.94 843 24.89 9.1 48.4 32 -6.7 20
13:10 1014 29.94 843 24.89 9.2 48.5 32 -6.5 20.2
13:15 1014 29.94 843 24.89 9.1 48.3 33 -6.3 20.7
13:20 1014 29.94 843 24.89 8.7 47.6 35 -5.9 21.3
13:25 1014 29.94 843 24.89 8.7 47.7 34 -6.3 20.6
13:30 1014 29.94 843 24.89 8.9 48.1 32 -7 19.3
13:35 1014 29.94 843 24.89 8.9 48 30 -7.6 18.4
13:40 1014 29.94 843 24.89 8.9 48.1 32 -6.8 19.7
13:45 1014 29.94 843 24.89 8.9 48.1 33 -6.4 20.4
13:50 1014 29.94 843 24.89 8.8 47.8 33 -6.4 20.4
13:55 1014 29.94 843 24.89 8.5 47.3 36 -5.6 21.9
14:00 1014 29.94 843 24.89 8 46.3 37 -6 21.2
14:05 1014 29.94 843 24.89 7.8 46.1 38 -5.5 22.2
14:10 1014 29.94 843 24.89 7.7 45.8 40 -5.1 22.8
14:15 1014 29.94 843 24.89 7.5 45.5 40 -5.3 22.5
14:20 1014 29.94 843 24.89 7.5 45.4 41 -5 23
14:25 1013 29.91 843 24.89 7.4 45.4 42 -4.8 23.4
14:30 1014 29.94 843 24.89 7.4 45.3 42 -4.6 23.6
14:35 1013 29.91 843 24.89 7.7 45.9 41 -4.8 23.4
14:40 1013 29.91 843 24.89 7.7 45.9 40 -5 23
14:45 1013 29.91 843 24.89 7.6 45.7 42 -4.6 23.7
14:50 1013 29.91 843 24.89 7.2 45 43 -4.4 24.2
14:55 1013 29.91 842 24.86 7 44.6 45 -4.2 24.4
15:00 1013 29.91 842 24.86 6.8 44.3 44 -4.5 23.8
15:05 1013 29.91 842 24.86 6.9 44.3 45 -4.2 24.5
15:10 1013 29.91 842 24.86 6.6 43.9 47 -3.9 25.1
15:15 1013 29.91 842 24.86 6.5 43.8 45 -4.5 24
15:20 1013 29.91 842 24.86 6.8 44.3 45 -4.4 24.1
15:25 1013 29.91 842 24.86 6.7 44.1 45 -4.5 24
15:30 1013 29.91 842 24.86 6.7 44 44 -4.7 23.5
15:35 1013 29.91 842 24.86 6.8 44.2 44 -4.7 23.5
15:40 1013 29.91 842 24.86 6.7 44.1 44 -4.5 23.9
15:45 1013 29.91 842 24.86 6.8 44.2 45 -4.4 24.1
15:50 1013 29.91 842 24.86 6.8 44.2 47 -3.7 25.3
15:55 1013 29.91 842 24.86 6.6 43.9 49 -3.4 25.8
16:00 1013 29.91 842 24.86 6.6 44 47 -3.8 25.1
16:05 1013 29.91 842 24.86 6.8 44.2 47 -3.9 25
16:10 1013 29.91 842 24.86 6.8 44.2 47 -3.7 25.3
16:15 1013 29.91 843 24.89 6.6 43.8 48 -3.5 25.6
16:20 1013 29.91 843 24.89 6.3 43.4 48 -4 24.9
16:25 1013 29.91 843 24.89 6.3 43.4 49 -3.6 25.5
16:30 1013 29.91 843 24.89 6.2 43.1 50 -3.3 26
16:35 1014 29.94 843 24.89 6.2 43.1 49 -3.8 25.1
16:40 1013 29.91 843 24.89 6.4 43.5 46 -4.4 24.1
16:45 1013 29.91 843 24.89 6.8 44.2 45 -4.3 24.3
16:50 1013 29.91 843 24.89 6.9 44.4 47 -3.7 25.4
16:55 1014 29.94 843 24.89 6.7 44 48 -3.4 25.8
17:00 1014 29.94 843 24.89 6.5 43.7 48 -3.6 25.6
17:05 1014 29.94 843 24.89 6.5 43.8 49 -3.3 26.1
17:10 1014 29.94 843 24.89 6.4 43.5 52 -2.9 26.9
17:15 1014 29.94 843 24.89 6.2 43.1 53 -2.6 27.3
17:20 1014 29.94 843 24.89 5.9 42.7 55 -2.4 27.7
17:25 1014 29.94 843 24.89 5.8 42.4 57 -2.1 28.2
17:30 1014 29.94 843 24.89 5.6 42 59 -1.8 28.7
17:35 1014 29.94 843 24.89 5.4 41.8 60 -1.7 28.9
17:40 1014 29.94 843 24.89 5.3 41.5 63 -1.2 29.9
17:45 1014 29.94 844 24.92 5.1 41.3 65 -0.8 30.6
17:50 1014 29.94 844 24.92 5.1 41.2 66 -0.7 30.7
17:55 1014 29.94 844 24.92 5.1 41.2 64 -1 30.2
18:00 1014 29.94 844 24.92 5.1 41.1 65 -0.9 30.4
18:05 1014 29.94 844 24.92 5 40.9 65 -1 30.2
18:10 1014 29.94 844 24.92 4.9 40.7 66 -1 30.2
18:15 1014 29.94 844 24.92 4.9 40.8 65 -1.1 30
18:20 1014 29.94 844 24.92 4.8 40.7 66 -0.9 30.5
18:25 1014 29.94 844 24.92 4.6 40.4 67 -1 30.2
18:30 1014 29.94 843 24.89 4.4 40 66 -1.3 29.7
18:35 1014 29.94 843 24.89 4.5 40.1 66 -1.3 29.7
18:40 1014 29.94 843 24.89 4.6 40.2 65 -1.4 29.6
18:45 1014 29.94 843 24.89 4.6 40.3 65 -1.3 29.7
18:50 1014 29.94 843 24.89 4.6 40.2 65 -1.4 29.5
18:55 1014 29.94 843 24.89 4.7 40.4 66 -1.2 29.8
19:00 1014 29.94 843 24.89 4.6 40.3 66 -1.1 30
19:05 1014 29.94 843 24.89 4.5 40.2 67 -1 30.1
19:10 1014 29.94 843 24.89 4.5 40.2 67 -1.1 30
19:15 1014 29.94 843 24.89 4.6 40.2 67 -1.1 30.1
19:20 1014 29.94 843 24.89 4.5 40.2 66 -1.3 29.6
19:25 1014 29.94 843 24.89 4.6 40.3 66 -1.1 29.9
19:30 1014 29.94 844 24.92 4.5 40.1 67 -1.1 30
19:35 1014 29.94 843 24.89 4.4 39.8 67 -1.2 29.8
19:40 1014 29.94 843 24.89 4.4 39.9 66 -1.4 29.5
19:45 1014 29.94 843 24.89 4.6 40.2 64 -1.6 29.1
19:50 1014 29.94 843 24.89 4.7 40.4 63 -1.7 29
19:55 1014 29.94 843 24.89 4.7 40.5 62 -1.8 28.7
20:00 1014 29.94 843 24.89 4.7 40.5 63 -1.7 29
20:05 1014 29.94 843 24.89 4.5 40.2 65 -1.5 29.2
20:10 1014 29.94 843 24.89 4.4 40 64 -1.8 28.7
20:15 1014 29.94 843 24.89 4.6 40.3 61 -2.3 27.8
20:20 1014 29.94 843 24.89 4.8 40.7 61 -2 28.4
20:25 1014 29.94 843 24.89 4.7 40.5 62 -2 28.4
20:30 1014 29.94 843 24.89 4.6 40.4 62 -2.1 28.3
20:35 1014 29.94 844 24.92 4.6 40.2 61 -2.4 27.7
20:40 1015 29.97 844 24.92 4.7 40.4 61 -2.3 27.9
20:45 1015 29.97 844 24.92 4.6 40.3 60 -2.4 27.7
20:50 1015 29.97 844 24.92 4.6 40.3 58 -2.9 26.7
20:55 1015 29.97 844 24.92 4.8 40.7 57 -3 26.6
21:00 1015 29.97 844 24.92 4.8 40.7 58 -2.7 27.1
21:05 1015 29.97 844 24.92 4.8 40.6 60 -2.4 27.7
21:10 1015 29.97 844 24.92 4.6 40.3 64 -1.7 29
21:15 1015 29.97 845 24.95 4.1 39.5 69 -1 30.3
21:20 1016 30 845 24.95 3.8 38.8 71 -0.9 30.3
21:25 1016 30 845 24.95 3.5 38.3 66 -2.3 27.8
21:30 1016 30 845 24.95 3.3 37.9 67 -2.3 27.9
21:35 1016 30 845 24.95 2.8 37 61 -4 24.9
21:40 1016 30 845 24.95 2.6 36.8 60 -4.4 24
21:45 1016 30 845 24.95 2.6 36.6 54 -5.9 21.4
21:50 1016 30 845 24.95 2.7 36.8 54 -5.8 21.5
21:55 1016 30 845 24.95 2.5 36.5 55 -5.6 21.9
22:00 1016 30 846 24.98 2.4 36.3 56 -5.6 22
22:05 1017 30.03 846 24.98 2.3 36.1 56 -5.6 21.9
22:10 1017 30.03 846 24.98 2.3 36.1 57 -5.5 22.2
22:15 1017 30.03 846 24.98 2.2 36 57 -5.5 22.1
22:20 1017 30.03 846 24.98 2.2 35.9 56 -5.7 21.7
22:25 1017 30.03 847 25.01 2.2 35.9 56 -5.8 21.6
22:30 1018 30.06 847 25.01 2.1 35.8 54 -6.3 20.6
22:35 1018 30.06 847 25.01 2.2 35.9 53 -6.3 20.6
22:40 1018 30.06 847 25.01 2.2 35.9 54 -6.2 20.8
22:45 1018 30.06 847 25.01 2.1 35.8 54 -6.3 20.7
22:50 1018 30.06 847 25.01 2.1 35.8 52 -6.7 20
22:55 1018 30.06 847 25.01 2.2 35.9 52 -6.7 19.9
23:00 1018 30.06 847 25.01 2.2 35.9 53 -6.4 20.4
23:05 1018 30.06 847 25.01 2.1 35.8 53 -6.4 20.5
23:10 1018 30.06 847 25.01 2.1 35.7 53 -6.4 20.4
23:15 1018 30.06 847 25.01 2 35.7 53 -6.6 20.1
23:20 1018 30.06 847 25.01 2.1 35.8 51 -7.1 19.3
23:25 1018 30.06 847 25.01 2.1 35.9 50 -7.2 19
23:30 1018 30.06 847 25.01 2.1 35.8 51 -7 19.4
23:35 1018 30.06 847 25.01 2 35.6 53 -6.7 20
23:40 1018 30.06 847 25.01 1.8 35.3 51 -7.3 18.9
23:45 1018 30.06 847 25.01 1.8 35.2 52 -6.9 19.5
23:50 1018 30.06 847 25.01 1.6 34.9 52 -7.2 19
23:55 1018 30.06 847 25.01 1.6 34.9 50 -7.7 18.1
24:00 1018 30.06 847 25.01 1.7 35.1 50 -7.6 18.2